createdAt,value
2019-01-12T00:00:07.643Z,15.35
2019-01-12T00:02:42.510Z,15.70
2019-01-12T00:05:22.637Z,15.17
2019-01-12T00:07:57.408Z,15.83
2019-01-12T00:10:32.139Z,15.67
2019-01-12T00:13:06.469Z,15.37
2019-01-12T00:15:41.195Z,15.80
2019-01-12T00:18:15.735Z,16.80
2019-01-12T00:20:50.427Z,15.37
2019-01-12T00:23:25.285Z,15.13
2019-01-12T00:25:59.881Z,14.87
2019-01-12T00:28:34.327Z,15.67
2019-01-12T00:31:08.945Z,15.60
2019-01-12T00:33:43.526Z,15.93
2019-01-12T00:36:18.278Z,15.97
2019-01-12T00:38:52.650Z,15.72
2019-01-12T00:41:27.632Z,15.30
2019-01-12T00:44:01.945Z,14.87
2019-01-12T00:46:36.720Z,15.70
2019-01-12T00:49:11.533Z,15.70
2019-01-12T00:51:45.966Z,15.53
2019-01-12T00:54:21.017Z,15.30
2019-01-12T00:56:55.542Z,16.40
2019-01-12T00:59:30.316Z,16.13
2019-01-12T01:02:04.732Z,15.33
2019-01-12T01:04:38.664Z,14.97
2019-01-12T01:07:13.385Z,15.13
2019-01-12T01:09:48.121Z,15.43
2019-01-12T01:12:23.055Z,14.40
2019-01-12T01:14:57.413Z,14.87
2019-01-12T01:17:32.343Z,14.15
2019-01-12T01:20:06.854Z,15.27
2019-01-12T01:22:41.526Z,14.43
2019-01-12T01:25:16.403Z,13.13
2019-01-12T01:27:50.906Z,14.33
2019-01-12T01:30:25.948Z,12.97
2019-01-12T01:33:00.145Z,14.03
2019-01-12T01:35:34.973Z,14.10
2019-01-12T01:38:09.621Z,13.90
2019-01-12T01:40:44.638Z,13.87
2019-01-12T01:43:19.100Z,14.10
2019-01-12T01:45:53.576Z,13.70
2019-01-12T01:48:28.799Z,14.65
2019-01-12T01:51:03.399Z,14.23
2019-01-12T01:53:38.342Z,13.20
2019-01-12T01:56:12.630Z,13.15
2019-01-12T01:58:46.903Z,14.43
2019-01-12T02:01:22.484Z,14.20
2019-01-12T02:03:56.663Z,13.80
2019-01-12T02:06:32.072Z,14.03
2019-01-12T02:09:06.908Z,13.23
2019-01-12T02:11:42.848Z,13.93
2019-01-12T02:14:17.265Z,14.03
2019-01-12T02:16:52.025Z,12.98
2019-01-12T02:19:27.045Z,14.53
2019-01-12T02:22:01.497Z,13.75
2019-01-12T02:24:35.894Z,13.27
2019-01-12T02:27:11.438Z,12.83
2019-01-12T02:29:45.966Z,14.13
2019-01-12T02:32:20.950Z,13.03
2019-01-12T02:34:55.849Z,13.13
2019-01-12T02:37:30.421Z,13.58
2019-01-12T02:40:05.693Z,13.18
2019-01-12T02:42:40.320Z,12.65
2019-01-12T02:45:15.854Z,12.83
2019-01-12T02:47:50.347Z,13.62
2019-01-12T02:50:24.837Z,13.25
2019-01-12T02:52:59.150Z,13.40
2019-01-12T02:55:34.178Z,12.60
2019-01-12T02:58:08.591Z,14.25
2019-01-12T03:00:43.295Z,13.57
2019-01-12T03:03:18.244Z,12.73
2019-01-12T03:05:52.689Z,13.13
2019-01-12T03:08:26.846Z,14.13
2019-01-12T03:11:01.921Z,13.93
2019-01-12T03:13:36.844Z,15.40
2019-01-12T03:16:11.460Z,14.60
2019-01-12T03:18:46.118Z,14.93
2019-01-12T03:21:20.537Z,15.90
2019-01-12T03:23:55.001Z,15.03
2019-01-12T03:26:29.573Z,16.27
2019-01-12T03:29:04.343Z,15.75
2019-01-12T03:31:38.976Z,16.87
2019-01-12T03:34:14.125Z,15.83
2019-01-12T03:36:48.160Z,17.07
2019-01-12T03:39:22.495Z,17.13
2019-01-12T03:41:56.778Z,17.57
2019-01-12T03:44:31.297Z,17.60
2019-01-12T03:47:05.609Z,16.47
2019-01-12T03:49:40.498Z,17.23
2019-01-12T03:52:33.052Z,17.83
2019-01-12T03:55:08.342Z,16.95
2019-01-12T03:57:42.401Z,18.52
2019-01-12T04:00:23.740Z,18.92
2019-01-12T04:02:58.324Z,19.23
2019-01-12T04:05:32.660Z,18.67
2019-01-12T04:08:07.532Z,19.73
2019-01-12T04:10:42.483Z,20.13
2019-01-12T04:13:17.295Z,18.98
2019-01-12T04:15:51.827Z,21.40
2019-01-12T04:18:27.097Z,19.70
2019-01-12T04:21:01.808Z,19.85
2019-01-12T04:23:36.227Z,20.15
2019-01-12T04:26:10.992Z,19.85
2019-01-12T04:28:45.584Z,21.17
2019-01-12T04:31:20.863Z,20.12
2019-01-12T04:33:55.319Z,19.07
2019-01-12T04:36:29.894Z,20.35
2019-01-12T04:39:03.998Z,20.57
2019-01-12T04:41:38.478Z,20.43
2019-01-12T04:44:12.991Z,20.20
2019-01-12T04:46:48.670Z,21.37
2019-01-12T04:49:23.217Z,20.37
2019-01-12T04:51:58.029Z,20.48
2019-01-12T04:54:32.731Z,19.02
2019-01-12T04:57:07.931Z,20.80
2019-01-12T04:59:42.725Z,19.87
2019-01-12T05:02:16.919Z,18.92
2019-01-12T05:04:51.059Z,19.67
2019-01-12T05:07:25.821Z,20.27
2019-01-12T05:10:00.475Z,20.00
2019-01-12T05:12:34.821Z,19.20
2019-01-12T05:15:09.679Z,19.77
2019-01-12T05:17:43.515Z,19.25
2019-01-12T05:20:23.053Z,18.93
2019-01-12T05:22:57.485Z,18.87
2019-01-12T05:25:34.510Z,18.55
2019-01-12T05:28:08.618Z,17.98
2019-01-12T05:30:59.203Z,19.37
2019-01-12T05:33:34.344Z,18.23
2019-01-12T05:36:09.126Z,17.80
2019-01-12T05:38:44.152Z,18.30
2019-01-12T05:41:18.501Z,18.67
2019-01-12T05:43:54.002Z,19.00
2019-01-12T05:46:28.796Z,17.40
2019-01-12T05:49:03.119Z,18.55
2019-01-12T05:51:37.727Z,18.12
2019-01-12T05:54:12.991Z,17.82
2019-01-12T05:56:47.719Z,18.15
2019-01-12T05:59:21.895Z,18.27
2019-01-12T06:01:57.194Z,17.60
2019-01-12T06:04:32.008Z,17.98
2019-01-12T06:07:06.455Z,18.73
2019-01-12T06:09:41.507Z,17.87
2019-01-12T06:12:16.270Z,18.45
2019-01-12T06:14:50.615Z,18.67
2019-01-12T06:17:25.310Z,18.35
2019-01-12T06:19:59.983Z,18.67
2019-01-12T06:22:34.571Z,18.52
2019-01-12T06:25:09.988Z,18.90
2019-01-12T06:27:44.941Z,17.75
2019-01-12T06:30:21.837Z,16.33
2019-01-12T06:32:59.388Z,17.57
2019-01-12T06:35:42.806Z,17.65
2019-01-12T06:38:17.581Z,16.10
2019-01-12T06:40:51.681Z,17.35
2019-01-12T06:43:26.713Z,17.63
2019-01-12T06:46:01.318Z,17.90
2019-01-12T06:48:35.868Z,17.35
2019-01-12T06:51:10.361Z,17.85
2019-01-12T06:53:44.990Z,16.60
2019-01-12T06:56:19.268Z,17.25
2019-01-12T06:58:53.794Z,17.02
2019-01-12T07:01:30.169Z,18.32
2019-01-12T07:04:05.152Z,17.73
2019-01-12T07:06:39.781Z,17.90
2019-01-12T07:09:14.500Z,17.80
2019-01-12T07:11:48.956Z,17.02
2019-01-12T07:14:24.320Z,17.82
2019-01-12T07:16:59.220Z,17.90
2019-01-12T07:19:33.715Z,17.50
2019-01-12T07:22:08.327Z,16.97
2019-01-12T07:24:42.982Z,17.52
2019-01-12T07:27:17.893Z,18.95
2019-01-12T07:29:52.121Z,18.20
2019-01-12T07:32:27.084Z,18.50
2019-01-12T07:35:01.566Z,18.30
2019-01-12T07:37:36.578Z,17.12
2019-01-12T07:40:11.102Z,17.50
2019-01-12T07:42:46.001Z,18.45
2019-01-12T07:45:20.368Z,18.50
2019-01-12T07:47:54.745Z,18.42
2019-01-12T07:50:29.748Z,18.35
2019-01-12T07:53:04.682Z,17.98
2019-01-12T07:55:39.161Z,18.90
2019-01-12T07:58:13.757Z,18.42
2019-01-12T08:00:48.331Z,18.32
2019-01-12T08:03:22.525Z,18.23
2019-01-12T08:05:57.590Z,19.50
2019-01-12T08:08:31.980Z,19.37
2019-01-12T08:11:07.040Z,19.25
2019-01-12T08:13:41.759Z,19.55
2019-01-12T08:16:16.029Z,18.80
2019-01-12T08:18:51.177Z,19.07
2019-01-12T08:21:25.720Z,18.02
2019-01-12T08:24:02.859Z,18.35
2019-01-12T08:26:38.150Z,18.77
2019-01-12T08:29:12.613Z,18.15
2019-01-12T08:31:46.565Z,19.57
2019-01-12T08:34:21.466Z,19.27
2019-01-12T08:36:56.072Z,18.73
2019-01-12T08:39:30.756Z,18.40
2019-01-12T08:42:04.949Z,18.85
2019-01-12T08:44:39.706Z,18.55
2019-01-12T08:47:14.046Z,19.27
2019-01-12T08:49:48.993Z,18.98
2019-01-12T08:52:23.634Z,18.82
2019-01-12T08:54:58.220Z,19.27
2019-01-12T08:57:32.668Z,19.00
2019-01-12T09:00:08.900Z,19.52
2019-01-12T09:02:42.999Z,18.00
2019-01-12T09:05:18.012Z,18.95
2019-01-12T09:07:52.398Z,19.02
2019-01-12T09:10:27.641Z,18.60
2019-01-12T09:13:02.225Z,18.20
2019-01-12T09:15:36.535Z,18.05
2019-01-12T09:18:11.474Z,19.20
2019-01-12T09:20:45.542Z,18.82
2019-01-12T09:23:20.575Z,18.87
2019-01-12T09:25:55.739Z,17.95
2019-01-12T09:28:30.348Z,18.00
2019-01-12T09:31:04.874Z,18.57
2019-01-12T09:33:39.098Z,18.32
2019-01-12T09:36:13.912Z,18.20
2019-01-12T09:38:48.800Z,18.45
2019-01-12T09:41:24.515Z,18.25
2019-01-12T09:43:59.241Z,18.00
2019-01-12T09:46:33.657Z,18.37
2019-01-12T09:49:08.520Z,19.12
2019-01-12T09:51:42.877Z,19.55
2019-01-12T09:54:17.477Z,19.70
2019-01-12T09:56:52.234Z,19.10
2019-01-12T09:59:27.215Z,18.57
2019-01-12T10:02:01.662Z,19.40
2019-01-12T10:04:36.539Z,20.55
2019-01-12T10:07:11.121Z,21.17
2019-01-12T10:09:46.246Z,21.70
2019-01-12T10:12:37.281Z,21.40
2019-01-12T10:15:12.703Z,21.77
2019-01-12T10:17:47.337Z,21.05
2019-01-12T10:20:22.615Z,22.13
2019-01-12T10:22:57.155Z,22.62
2019-01-12T10:25:31.602Z,21.93
2019-01-12T10:28:06.516Z,22.52
2019-01-12T10:30:40.902Z,21.35
2019-01-12T10:33:15.481Z,21.57
2019-01-12T10:35:50.177Z,20.05
2019-01-12T10:38:25.151Z,22.73
2019-01-12T10:40:59.904Z,20.75
2019-01-12T10:43:34.258Z,22.20
2019-01-12T10:46:08.875Z,22.00
2019-01-12T10:48:43.218Z,20.88
2019-01-12T10:51:17.881Z,21.73
2019-01-12T10:53:51.897Z,22.32
2019-01-12T10:56:26.454Z,20.40
2019-01-12T10:59:01.853Z,20.95
2019-01-12T11:01:36.510Z,20.37
2019-01-12T11:04:11.457Z,20.75
2019-01-12T11:06:46.211Z,20.02
2019-01-12T11:09:20.932Z,19.80
2019-01-12T11:11:55.674Z,19.05
2019-01-12T11:14:30.450Z,19.35
2019-01-12T11:17:05.206Z,19.55
2019-01-12T11:19:39.787Z,18.77
2019-01-12T11:22:14.511Z,19.67
2019-01-12T11:24:49.224Z,18.15
2019-01-12T11:27:23.758Z,19.40
2019-01-12T11:29:59.564Z,18.92
2019-01-12T11:32:33.824Z,18.75
2019-01-12T11:35:09.181Z,17.60
2019-01-12T11:37:43.870Z,19.40
2019-01-12T11:40:23.395Z,19.65
2019-01-12T11:42:58.072Z,19.90
2019-01-12T11:45:32.753Z,19.30
2019-01-12T11:48:07.301Z,18.80
2019-01-12T11:50:41.798Z,19.98
2019-01-12T11:53:16.649Z,21.53
2019-01-12T11:55:51.308Z,20.88
2019-01-12T11:58:26.281Z,20.27
2019-01-12T12:01:01.482Z,20.35
2019-01-12T12:03:36.386Z,19.35
2019-01-12T12:06:11.316Z,18.92
2019-01-12T12:08:45.459Z,20.12
2019-01-12T12:11:20.313Z,20.85
2019-01-12T12:13:55.067Z,20.27
2019-01-12T12:16:29.707Z,20.02
2019-01-12T12:19:04.556Z,19.92
2019-01-12T12:21:39.220Z,19.90
2019-01-12T12:24:13.626Z,19.87
2019-01-12T12:26:47.986Z,21.55
2019-01-12T12:29:22.815Z,20.90
2019-01-12T12:31:57.495Z,21.17
2019-01-12T12:34:31.698Z,20.02
2019-01-12T12:37:06.570Z,20.68
2019-01-12T12:39:41.166Z,22.23
2019-01-12T12:42:16.178Z,21.07
2019-01-12T12:44:50.560Z,21.80
2019-01-12T12:47:25.013Z,21.30
2019-01-12T12:50:00.293Z,21.10
2019-01-12T12:52:34.619Z,20.92
2019-01-12T12:55:09.495Z,22.07
2019-01-12T12:57:43.954Z,21.57
2019-01-12T13:00:21.025Z,21.10
2019-01-12T13:02:55.899Z,21.87
2019-01-12T13:05:31.107Z,22.45
2019-01-12T13:08:05.791Z,21.67
2019-01-12T13:10:40.450Z,22.30
2019-01-12T13:13:15.409Z,22.80
2019-01-12T13:15:49.631Z,23.35
2019-01-12T13:18:24.390Z,22.07
2019-01-12T13:20:58.967Z,23.52
2019-01-12T13:23:32.893Z,22.40
2019-01-12T13:26:07.490Z,23.65
2019-01-12T13:28:42.150Z,21.55
2019-01-12T13:31:17.025Z,21.77
2019-01-12T13:33:51.610Z,22.45
2019-01-12T13:36:26.282Z,22.53
2019-01-12T13:39:00.511Z,21.75
2019-01-12T13:41:35.259Z,22.87
2019-01-12T13:44:10.650Z,20.68
2019-01-12T13:46:45.872Z,22.95
2019-01-12T13:49:20.206Z,22.13
2019-01-12T13:51:55.031Z,22.63
2019-01-12T13:54:29.475Z,22.17
2019-01-12T13:57:04.439Z,20.95
2019-01-12T13:59:38.963Z,21.02
2019-01-12T14:02:13.723Z,23.10
2019-01-12T14:04:48.995Z,22.32
2019-01-12T14:07:23.527Z,21.90
2019-01-12T14:09:58.513Z,22.67
2019-01-12T14:12:32.992Z,22.32
2019-01-12T14:15:08.229Z,23.50
2019-01-12T14:17:43.152Z,24.12
2019-01-12T14:20:20.523Z,24.18
2019-01-12T14:22:55.242Z,25.25
2019-01-12T14:25:29.542Z,25.60
2019-01-12T14:28:04.609Z,25.12
2019-01-12T14:30:39.008Z,24.90
2019-01-12T14:33:14.054Z,26.45
2019-01-12T14:35:48.678Z,26.50
2019-01-12T14:38:23.489Z,27.55
2019-01-12T14:40:58.312Z,26.90
2019-01-12T14:43:32.883Z,27.22
2019-01-12T14:46:08.652Z,26.37
2019-01-12T14:48:43.064Z,27.65
2019-01-12T14:51:17.560Z,25.75
2019-01-12T14:53:51.916Z,26.62
2019-01-12T14:56:27.079Z,25.27
2019-01-12T14:59:01.486Z,28.10
2019-01-12T15:01:35.995Z,27.37
2019-01-12T15:04:10.662Z,27.17
2019-01-12T15:06:46.236Z,26.80
2019-01-12T15:09:20.823Z,26.07
2019-01-12T15:11:55.700Z,25.52
2019-01-12T15:14:29.908Z,27.58
2019-01-12T15:17:04.256Z,25.37
2019-01-12T15:19:38.687Z,25.45
2019-01-12T15:22:13.607Z,25.55
2019-01-12T15:24:48.447Z,26.37
2019-01-12T15:27:23.023Z,25.62
2019-01-12T15:29:57.483Z,26.07
2019-01-12T15:32:32.482Z,26.90
2019-01-12T15:35:07.079Z,26.50
2019-01-12T15:37:43.378Z,25.57
2019-01-12T15:40:19.109Z,25.77
2019-01-12T15:42:53.117Z,25.32
2019-01-12T15:45:28.488Z,26.68
2019-01-12T15:48:03.125Z,25.20
2019-01-12T15:50:37.556Z,24.30
2019-01-12T15:53:11.947Z,25.80
2019-01-12T15:55:46.323Z,24.27
2019-01-12T15:58:21.070Z,24.18
2019-01-12T16:00:55.461Z,25.17
2019-01-12T16:03:30.146Z,24.55
2019-01-12T16:06:04.946Z,24.90
2019-01-12T16:08:39.623Z,23.67
2019-01-12T16:11:15.195Z,25.05
2019-01-12T16:13:49.622Z,23.70
2019-01-12T16:16:25.029Z,24.02
2019-01-12T16:18:59.756Z,22.62
2019-01-12T16:21:34.316Z,23.87
2019-01-12T16:24:09.051Z,24.30
2019-01-12T16:26:43.595Z,24.15
2019-01-12T16:29:18.420Z,22.87
2019-01-12T16:31:53.302Z,23.18
2019-01-12T16:34:28.076Z,23.00
2019-01-12T16:37:01.922Z,24.40
2019-01-12T16:39:36.973Z,24.67
2019-01-12T16:42:11.686Z,23.18
2019-01-12T16:44:46.491Z,22.97
2019-01-12T16:47:21.097Z,23.18
2019-01-12T16:49:55.589Z,22.13
2019-01-12T16:52:30.444Z,23.10
2019-01-12T16:55:04.886Z,25.67
2019-01-12T16:57:39.752Z,25.20
2019-01-12T17:00:32.883Z,23.90
2019-01-12T17:03:07.607Z,22.07
2019-01-12T17:05:42.646Z,23.00
2019-01-12T17:08:18.517Z,23.25
2019-01-12T17:10:52.977Z,23.87
2019-01-12T17:13:33.011Z,23.93
2019-01-12T17:16:08.711Z,23.87
2019-01-12T17:18:43.302Z,23.12
2019-01-12T17:21:17.753Z,23.00
2019-01-12T17:23:52.513Z,24.25
2019-01-12T17:26:26.821Z,23.02
2019-01-12T17:29:01.666Z,23.50
2019-01-12T17:31:36.208Z,24.23
2019-01-12T17:34:10.803Z,22.80
2019-01-12T17:36:45.041Z,22.85
2019-01-12T17:39:19.943Z,22.90
2019-01-12T17:41:54.441Z,23.07
2019-01-12T17:44:29.385Z,23.10
2019-01-12T17:47:03.858Z,23.55
2019-01-12T17:49:38.379Z,23.10
2019-01-12T17:52:12.830Z,23.40
2019-01-12T17:54:47.366Z,23.10
2019-01-12T17:57:22.197Z,23.30
2019-01-12T17:59:56.594Z,23.05
2019-01-12T18:02:31.283Z,23.30
2019-01-12T18:05:05.543Z,23.10
2019-01-12T18:07:40.351Z,22.05
2019-01-12T18:10:15.852Z,22.67
2019-01-12T18:12:50.391Z,23.45
2019-01-12T18:15:25.600Z,23.22
2019-01-12T18:17:59.829Z,22.50
2019-01-12T18:20:34.427Z,23.92
2019-01-12T18:23:08.969Z,22.62
2019-01-12T18:25:43.402Z,22.43
2019-01-12T18:28:17.733Z,23.35
2019-01-12T18:30:53.429Z,22.83
2019-01-12T18:33:28.143Z,23.33
2019-01-12T18:36:02.504Z,23.50
2019-01-12T18:38:37.188Z,22.87
2019-01-12T18:41:12.430Z,22.70
2019-01-12T18:43:46.875Z,22.87
2019-01-12T18:46:21.489Z,23.45
2019-01-12T18:48:55.902Z,23.90
2019-01-12T18:51:30.230Z,23.98
2019-01-12T18:54:05.739Z,25.67
2019-01-12T18:56:40.698Z,22.93
2019-01-12T18:59:15.172Z,23.45
2019-01-12T19:01:49.749Z,24.47
2019-01-12T19:04:24.464Z,23.87
2019-01-12T19:06:58.928Z,25.32
2019-01-12T19:09:33.863Z,24.90
2019-01-12T19:12:08.733Z,23.73
2019-01-12T19:14:43.139Z,25.40
2019-01-12T19:17:17.795Z,24.37
2019-01-12T19:19:52.267Z,23.70
2019-01-12T19:22:26.765Z,24.77
2019-01-12T19:25:01.610Z,23.83
2019-01-12T19:27:36.013Z,24.60
2019-01-12T19:30:12.927Z,23.62
2019-01-12T19:32:49.774Z,24.00
2019-01-12T19:35:23.999Z,24.30
2019-01-12T19:37:58.022Z,24.02
2019-01-12T19:40:33.079Z,23.40
2019-01-12T19:43:07.917Z,25.17
2019-01-12T19:45:42.269Z,23.73
2019-01-12T19:48:16.607Z,23.95
2019-01-12T19:50:51.483Z,25.65
2019-01-12T19:53:25.651Z,24.73
2019-01-12T19:56:00.380Z,24.93
2019-01-12T19:58:34.592Z,24.37
2019-01-12T20:01:09.839Z,24.12
2019-01-12T20:03:44.176Z,24.50
2019-01-12T20:06:18.792Z,24.03
2019-01-12T20:08:52.963Z,23.97
2019-01-12T20:11:27.505Z,24.03
2019-01-12T20:14:02.688Z,22.95
2019-01-12T20:16:38.663Z,23.52
2019-01-12T20:19:13.691Z,24.82
2019-01-12T20:21:48.489Z,25.15
2019-01-12T20:24:23.232Z,23.47
2019-01-12T20:26:59.167Z,24.40
2019-01-12T20:29:33.628Z,22.43
2019-01-12T20:32:18.816Z,24.73
2019-01-12T20:35:30.846Z,24.40
2019-01-12T20:38:42.842Z,23.12
2019-01-12T20:42:18.154Z,22.58
2019-01-12T20:45:17.739Z,22.80
2019-01-12T20:48:40.543Z,22.80
2019-01-12T20:51:55.134Z,22.20
2019-01-12T20:55:04.458Z,22.20
2019-01-12T20:58:36.086Z,22.32
2019-01-12T21:01:54.959Z,22.67
2019-01-12T21:05:11.852Z,22.20
2019-01-12T21:08:09.134Z,21.68
2019-01-12T21:11:17.222Z,22.70
2019-01-12T21:14:31.422Z,23.12
2019-01-12T21:17:16.934Z,22.32
2019-01-12T21:19:51.602Z,22.27
2019-01-12T21:22:26.054Z,25.20
2019-01-12T21:25:00.857Z,23.38
2019-01-12T21:27:35.121Z,24.20
2019-01-12T21:30:11.109Z,23.23
2019-01-12T21:32:46.189Z,24.70
2019-01-12T21:35:20.764Z,23.22
2019-01-12T21:37:55.367Z,23.02
2019-01-12T21:40:29.874Z,22.60
2019-01-12T21:43:04.543Z,22.63
2019-01-12T21:45:40.067Z,24.33
2019-01-12T21:48:14.466Z,22.20
2019-01-12T21:50:49.228Z,22.77
2019-01-12T21:53:23.787Z,23.30
2019-01-12T21:55:58.412Z,23.77
2019-01-12T21:58:33.304Z,23.57
2019-01-12T22:01:08.039Z,21.87
2019-01-12T22:03:42.531Z,23.75
2019-01-12T22:06:17.398Z,25.15
2019-01-12T22:08:52.168Z,24.53
2019-01-12T22:11:26.344Z,24.18
2019-01-12T22:14:01.027Z,23.93
2019-01-12T22:16:35.144Z,23.70
2019-01-12T22:19:10.131Z,24.47
2019-01-12T22:21:44.721Z,23.45
2019-01-12T22:24:19.790Z,25.53
2019-01-12T22:26:54.104Z,23.33
2019-01-12T22:29:29.013Z,24.13
2019-01-12T22:32:03.697Z,25.43
2019-01-12T22:34:38.949Z,24.43
2019-01-12T22:37:13.691Z,25.72
2019-01-12T22:39:48.543Z,25.23
2019-01-12T22:42:23.075Z,24.80
2019-01-12T22:44:57.696Z,26.27
2019-01-12T22:47:32.980Z,26.00
2019-01-12T22:50:08.147Z,26.37
2019-01-12T22:52:42.181Z,25.12
2019-01-12T22:55:17.280Z,26.53
2019-01-12T22:57:51.523Z,26.15
2019-01-12T23:01:17.621Z,25.80
2019-01-12T23:03:52.724Z,25.60
2019-01-12T23:06:28.195Z,27.52
2019-01-12T23:09:02.661Z,28.60
2019-01-12T23:11:37.344Z,29.83
2019-01-12T23:14:11.495Z,29.02
2019-01-12T23:16:46.424Z,27.67
2019-01-12T23:19:20.984Z,29.10
2019-01-12T23:21:55.262Z,29.50
2019-01-12T23:24:30.511Z,28.97
2019-01-12T23:27:04.963Z,29.10
2019-01-12T23:29:39.929Z,29.87
2019-01-12T23:32:14.447Z,29.98
2019-01-12T23:34:49.165Z,30.00
2019-01-12T23:37:23.905Z,28.85
2019-01-12T23:39:58.599Z,30.40
2019-01-12T23:42:33.083Z,31.45
2019-01-12T23:45:08.662Z,32.33
2019-01-12T23:47:43.250Z,32.43
2019-01-12T23:50:18.535Z,33.40
2019-01-12T23:52:53.057Z,33.70
2019-01-12T23:55:28.176Z,32.10
